MMPR/PVR METAR and TAF weather

Enter ICAO airport designator
Station Type Date Time Source
MMPR METAR 2019/02/17 06:46 UTC NOAA

MMPR 170646Z 16003KT 12SM BKN025 23/23 A2988 RMK 8/500


Station Type Date Time Source
MMPR Decoded METAR 2019/02/17 06:46 UTC NOAA

Puerto Vallarta / Lic, Mexico (MMPR) 20-41N 105-15W
Feb 17, 2019 - 01:46 AM EST / 2019.02.17 0646 UTC
Wind: from the SSE (160 degrees) at 3 MPH (3 KT):0
Visibility: 12 mile(s):0
Sky conditions: mostly cloudy
Temperature: 73 F (23 C)
Dew Point: 73 F (23 C)
Relative Humidity: 100%
Pressure (altimeter): 29.88 in. Hg (1011 hPa)
ob: MMPR 170646Z 16003KT 12SM BKN025 23/23 A2988 RMK 8/500
cycle: 7

Station Type Date Time Source
MMPR TAF 2019/02/17 07:33 UTC NOAA

TAF
AMD MMPR 170725Z 1707/1812 00000KT P6SM SCT025 TX26/1721Z TN18/1712Z
TEMPO 1707/1711 BKN020
FM171800 22010KT P6SM SCT025
BECMG 1805/1807 00000KT


Example: see airport list